sensor_id;sensor_type;location;lat;lon;timestamp;P1;durP1;ratioP1;P2;durP2;ratioP2
21128;SDS011;10722;51.910;8.352;2023-10-08T00:02:27;23.52;;;8.02;;
21128;SDS011;10722;51.910;8.352;2023-10-08T00:05:12;22.45;;;7.70;;
21128;SDS011;10722;51.910;8.352;2023-10-08T00:07:57;23.48;;;7.70;;
21128;SDS011;10722;51.910;8.352;2023-10-08T00:10:43;24.40;;;7.43;;
21128;SDS011;10722;51.910;8.352;2023-10-08T00:13:28;22.55;;;8.13;;
21128;SDS011;10722;51.910;8.352;2023-10-08T00:16:13;28.60;;;8.00;;
21128;SDS011;10722;51.910;8.352;2023-10-08T00:18:58;23.00;;;7.90;;
21128;SDS011;10722;51.910;8.352;2023-10-08T00:21:44;20.13;;;7.95;;
21128;SDS011;10722;51.910;8.352;2023-10-08T00:24:29;24.30;;;7.65;;
21128;SDS011;10722;51.910;8.352;2023-10-08T00:27:14;24.27;;;7.85;;
21128;SDS011;10722;51.910;8.352;2023-10-08T00:29:59;20.65;;;7.68;;
21128;SDS011;10722;51.910;8.352;2023-10-08T00:32:44;18.90;;;7.13;;
21128;SDS011;10722;51.910;8.352;2023-10-08T00:35:30;21.30;;;7.50;;
21128;SDS011;10722;51.910;8.352;2023-10-08T00:38:15;23.33;;;7.40;;
21128;SDS011;10722;51.910;8.352;2023-10-08T00:41:00;23.35;;;7.13;;
21128;SDS011;10722;51.910;8.352;2023-10-08T00:43:45;25.83;;;8.18;;
21128;SDS011;10722;51.910;8.352;2023-10-08T00:46:30;22.45;;;7.80;;
21128;SDS011;10722;51.910;8.352;2023-10-08T00:49:22;21.15;;;6.95;;
21128;SDS011;10722;51.910;8.352;2023-10-08T00:52:10;19.00;;;7.18;;
21128;SDS011;10722;51.910;8.352;2023-10-08T00:54:57;24.08;;;7.78;;
21128;SDS011;10722;51.910;8.352;2023-10-08T00:57:43;25.55;;;8.18;;
21128;SDS011;10722;51.910;8.352;2023-10-08T01:00:29;27.58;;;8.13;;
21128;SDS011;10722;51.910;8.352;2023-10-08T01:03:14;22.25;;;8.07;;
21128;SDS011;10722;51.910;8.352;2023-10-08T01:06:00;26.48;;;8.55;;
21128;SDS011;10722;51.910;8.352;2023-10-08T01:08:45;24.88;;;8.52;;
21128;SDS011;10722;51.910;8.352;2023-10-08T01:11:31;25.95;;;8.45;;
21128;SDS011;10722;51.910;8.352;2023-10-08T01:14:17;21.80;;;7.60;;
21128;SDS011;10722;51.910;8.352;2023-10-08T01:17:02;24.67;;;8.50;;
21128;SDS011;10722;51.910;8.352;2023-10-08T01:19:47;25.23;;;8.15;;
21128;SDS011;10722;51.910;8.352;2023-10-08T01:22:32;26.67;;;9.05;;
21128;SDS011;10722;51.910;8.352;2023-10-08T01:25:17;22.40;;;8.57;;
21128;SDS011;10722;51.910;8.352;2023-10-08T01:28:02;28.50;;;9.23;;
21128;SDS011;10722;51.910;8.352;2023-10-08T01:30:47;25.98;;;9.07;;
21128;SDS011;10722;51.910;8.352;2023-10-08T01:33:32;24.35;;;8.63;;
21128;SDS011;10722;51.910;8.352;2023-10-08T01:36:17;29.08;;;9.00;;
21128;SDS011;10722;51.910;8.352;2023-10-08T01:39:02;26.58;;;8.95;;
21128;SDS011;10722;51.910;8.352;2023-10-08T01:41:47;30.02;;;9.10;;
21128;SDS011;10722;51.910;8.352;2023-10-08T01:44:32;27.90;;;9.18;;
21128;SDS011;10722;51.910;8.352;2023-10-08T01:47:18;30.80;;;8.80;;
21128;SDS011;10722;51.910;8.352;2023-10-08T01:50:03;29.05;;;8.80;;
21128;SDS011;10722;51.910;8.352;2023-10-08T01:52:48;28.38;;;9.27;;
21128;SDS011;10722;51.910;8.352;2023-10-08T01:55:33;27.45;;;9.60;;
21128;SDS011;10722;51.910;8.352;2023-10-08T01:58:18;21.60;;;7.28;;
21128;SDS011;10722;51.910;8.352;2023-10-08T02:01:06;11.25;;;3.85;;
21128;SDS011;10722;51.910;8.352;2023-10-08T02:03:51;12.65;;;3.72;;
21128;SDS011;10722;51.910;8.352;2023-10-08T02:06:36;5.68;;;2.17;;
21128;SDS011;10722;51.910;8.352;2023-10-08T02:09:21;5.72;;;2.20;;
21128;SDS011;10722;51.910;8.352;2023-10-08T02:12:06;4.57;;;2.00;;
21128;SDS011;10722;51.910;8.352;2023-10-08T02:14:52;5.30;;;1.80;;
21128;SDS011;10722;51.910;8.352;2023-10-08T02:17:37;2.55;;;1.30;;
21128;SDS011;10722;51.910;8.352;2023-10-08T02:20:22;1.25;;;1.00;;
21128;SDS011;10722;51.910;8.352;2023-10-08T02:23:07;1.10;;;0.82;;
21128;SDS011;10722;51.910;8.352;2023-10-08T02:25:52;0.50;;;0.50;;
21128;SDS011;10722;51.910;8.352;2023-10-08T02:28:37;2.42;;;0.50;;
21128;SDS011;10722;51.910;8.352;2023-10-08T02:31:22;1.90;;;0.52;;
21128;SDS011;10722;51.910;8.352;2023-10-08T02:34:07;0.60;;;0.60;;
21128;SDS011;10722;51.910;8.352;2023-10-08T02:36:52;1.00;;;0.60;;
21128;SDS011;10722;51.910;8.352;2023-10-08T02:39:37;0.68;;;0.68;;
21128;SDS011;10722;51.910;8.352;2023-10-08T02:42:22;0.80;;;0.73;;
21128;SDS011;10722;51.910;8.352;2023-10-08T02:45:07;1.45;;;0.80;;
21128;SDS011;10722;51.910;8.352;2023-10-08T02:47:56;0.85;;;0.70;;
21128;SDS011;10722;51.910;8.352;2023-10-08T02:50:42;3.20;;;0.70;;
21128;SDS011;10722;51.910;8.352;2023-10-08T02:53:27;1.20;;;0.50;;
21128;SDS011;10722;51.910;8.352;2023-10-08T02:56:13;1.02;;;0.50;;
21128;SDS011;10722;51.910;8.352;2023-10-08T02:58:59;1.85;;;0.55;;
21128;SDS011;10722;51.910;8.352;2023-10-08T03:01:44;1.13;;;0.40;;
21128;SDS011;10722;51.910;8.352;2023-10-08T03:04:29;1.00;;;0.40;;
21128;SDS011;10722;51.910;8.352;2023-10-08T03:07:15;0.60;;;0.40;;
21128;SDS011;10722;51.910;8.352;2023-10-08T03:10:00;0.77;;;0.20;;
21128;SDS011;10722;51.910;8.352;2023-10-08T03:12:46;0.25;;;0.25;;
21128;SDS011;10722;51.910;8.352;2023-10-08T03:15:31;0.90;;;0.30;;
21128;SDS011;10722;51.910;8.352;2023-10-08T03:18:16;0.28;;;0.20;;
21128;SDS011;10722;51.910;8.352;2023-10-08T03:21:03;1.50;;;0.40;;
21128;SDS011;10722;51.910;8.352;2023-10-08T03:23:49;2.67;;;0.60;;
21128;SDS011;10722;51.910;8.352;2023-10-08T03:26:34;2.42;;;0.65;;
21128;SDS011;10722;51.910;8.352;2023-10-08T03:29:19;0.52;;;0.52;;
21128;SDS011;10722;51.910;8.352;2023-10-08T03:32:04;2.78;;;0.60;;
21128;SDS011;10722;51.910;8.352;2023-10-08T03:34:50;0.90;;;0.60;;
21128;SDS011;10722;51.910;8.352;2023-10-08T03:37:35;1.38;;;0.80;;
21128;SDS011;10722;51.910;8.352;2023-10-08T03:40:21;1.02;;;0.90;;
21128;SDS011;10722;51.910;8.352;2023-10-08T03:43:06;2.42;;;1.10;;
21128;SDS011;10722;51.910;8.352;2023-10-08T03:45:51;1.92;;;1.08;;
21128;SDS011;10722;51.910;8.352;2023-10-08T03:48:35;1.55;;;1.00;;
21128;SDS011;10722;51.910;8.352;2023-10-08T03:51:20;1.30;;;1.00;;
21128;SDS011;10722;51.910;8.352;2023-10-08T03:54:06;1.83;;;1.20;;
21128;SDS011;10722;51.910;8.352;2023-10-08T03:56:52;3.28;;;1.20;;
21128;SDS011;10722;51.910;8.352;2023-10-08T03:59:37;2.10;;;1.30;;
21128;SDS011;10722;51.910;8.352;2023-10-08T04:02:21;3.30;;;1.35;;
21128;SDS011;10722;51.910;8.352;2023-10-08T04:05:07;1.75;;;1.25;;
21128;SDS011;10722;51.910;8.352;2023-10-08T04:07:53;1.67;;;1.30;;
21128;SDS011;10722;51.910;8.352;2023-10-08T04:10:38;2.90;;;1.40;;
21128;SDS011;10722;51.910;8.352;2023-10-08T04:13:23;4.75;;;1.40;;
21128;SDS011;10722;51.910;8.352;2023-10-08T04:16:08;1.10;;;1.00;;
21128;SDS011;10722;51.910;8.352;2023-10-08T04:18:53;2.00;;;1.20;;
21128;SDS011;10722;51.910;8.352;2023-10-08T04:21:42;3.22;;;1.30;;
21128;SDS011;10722;51.910;8.352;2023-10-08T04:24:26;3.42;;;1.45;;
21128;SDS011;10722;51.910;8.352;2023-10-08T04:27:11;2.58;;;1.50;;
21128;SDS011;10722;51.910;8.352;2023-10-08T04:29:57;5.82;;;1.38;;
21128;SDS011;10722;51.910;8.352;2023-10-08T04:32:42;1.63;;;1.20;;
21128;SDS011;10722;51.910;8.352;2023-10-08T04:35:27;5.15;;;1.70;;
21128;SDS011;10722;51.910;8.352;2023-10-08T04:38:12;5.45;;;1.58;;
21128;SDS011;10722;51.910;8.352;2023-10-08T04:40:57;8.90;;;1.70;;
21128;SDS011;10722;51.910;8.352;2023-10-08T04:43:41;9.07;;;1.60;;
21128;SDS011;10722;51.910;8.352;2023-10-08T04:46:27;11.00;;;1.98;;
21128;SDS011;10722;51.910;8.352;2023-10-08T04:49:19;14.32;;;2.20;;
21128;SDS011;10722;51.910;8.352;2023-10-08T04:52:05;11.43;;;2.20;;
21128;SDS011;10722;51.910;8.352;2023-10-08T04:54:52;11.02;;;1.90;;
21128;SDS011;10722;51.910;8.352;2023-10-08T04:57:36;15.00;;;2.55;;
21128;SDS011;10722;51.910;8.352;2023-10-08T05:00:21;10.85;;;1.92;;
21128;SDS011;10722;51.910;8.352;2023-10-08T05:03:07;15.27;;;2.30;;
21128;SDS011;10722;51.910;8.352;2023-10-08T05:05:52;16.83;;;2.40;;
21128;SDS011;10722;51.910;8.352;2023-10-08T05:08:38;15.65;;;2.20;;
21128;SDS011;10722;51.910;8.352;2023-10-08T05:11:23;19.90;;;5.50;;
21128;SDS011;10722;51.910;8.352;2023-10-08T05:14:08;14.93;;;2.50;;
21128;SDS011;10722;51.910;8.352;2023-10-08T05:16:57;22.95;;;6.72;;
21128;SDS011;10722;51.910;8.352;2023-10-08T05:19:43;15.35;;;2.58;;
21128;SDS011;10722;51.910;8.352;2023-10-08T05:22:28;14.00;;;2.42;;
21128;SDS011;10722;51.910;8.352;2023-10-08T05:25:13;17.35;;;2.63;;
21128;SDS011;10722;51.910;8.352;2023-10-08T05:27:58;16.55;;;2.78;;
21128;SDS011;10722;51.910;8.352;2023-10-08T05:30:43;12.32;;;2.40;;
21128;SDS011;10722;51.910;8.352;2023-10-08T05:33:28;14.45;;;2.40;;
21128;SDS011;10722;51.910;8.352;2023-10-08T05:36:13;12.82;;;2.65;;
21128;SDS011;10722;51.910;8.352;2023-10-08T05:38:58;14.00;;;2.67;;
21128;SDS011;10722;51.910;8.352;2023-10-08T05:41:44;18.33;;;2.60;;
21128;SDS011;10722;51.910;8.352;2023-10-08T05:44:29;16.33;;;2.67;;
21128;SDS011;10722;51.910;8.352;2023-10-08T05:47:14;15.57;;;2.50;;
21128;SDS011;10722;51.910;8.352;2023-10-08T05:50:00;13.52;;;2.45;;
21128;SDS011;10722;51.910;8.352;2023-10-08T05:52:46;15.63;;;2.72;;
21128;SDS011;10722;51.910;8.352;2023-10-08T05:55:32;13.25;;;2.80;;
21128;SDS011;10722;51.910;8.352;2023-10-08T05:58:17;12.90;;;2.90;;
21128;SDS011;10722;51.910;8.352;2023-10-08T06:01:02;14.75;;;2.55;;
21128;SDS011;10722;51.910;8.352;2023-10-08T06:03:48;14.90;;;2.60;;
21128;SDS011;10722;51.910;8.352;2023-10-08T06:06:33;20.73;;;5.90;;
21128;SDS011;10722;51.910;8.352;2023-10-08T06:09:18;16.15;;;2.60;;
21128;SDS011;10722;51.910;8.352;2023-10-08T06:12:03;15.75;;;2.95;;
21128;SDS011;10722;51.910;8.352;2023-10-08T06:14:48;18.38;;;2.70;;
21128;SDS011;10722;51.910;8.352;2023-10-08T06:17:34;13.88;;;2.60;;
21128;SDS011;10722;51.910;8.352;2023-10-08T06:20:20;15.98;;;2.40;;
21128;SDS011;10722;51.910;8.352;2023-10-08T06:23:06;16.10;;;2.67;;
21128;SDS011;10722;51.910;8.352;2023-10-08T06:25:51;18.80;;;2.28;;
21128;SDS011;10722;51.910;8.352;2023-10-08T06:28:38;15.68;;;3.00;;
21128;SDS011;10722;51.910;8.352;2023-10-08T06:31:24;16.25;;;3.00;;
21128;SDS011;10722;51.910;8.352;2023-10-08T06:34:10;13.43;;;3.22;;
21128;SDS011;10722;51.910;8.352;2023-10-08T06:36:55;16.50;;;3.42;;
21128;SDS011;10722;51.910;8.352;2023-10-08T06:39:43;15.40;;;3.25;;
21128;SDS011;10722;51.910;8.352;2023-10-08T06:42:28;15.63;;;2.90;;
21128;SDS011;10722;51.910;8.352;2023-10-08T06:45:13;16.00;;;2.72;;
21128;SDS011;10722;51.910;8.352;2023-10-08T06:47:57;19.13;;;3.30;;
21128;SDS011;10722;51.910;8.352;2023-10-08T06:50:47;14.30;;;2.67;;
21128;SDS011;10722;51.910;8.352;2023-10-08T06:53:33;18.35;;;2.70;;
21128;SDS011;10722;51.910;8.352;2023-10-08T06:56:19;13.65;;;2.25;;
21128;SDS011;10722;51.910;8.352;2023-10-08T06:59:04;14.60;;;2.38;;
21128;SDS011;10722;51.910;8.352;2023-10-08T07:01:49;15.10;;;2.47;;
21128;SDS011;10722;51.910;8.352;2023-10-08T07:04:35;13.82;;;2.15;;
21128;SDS011;10722;51.910;8.352;2023-10-08T07:07:20;16.23;;;2.30;;
21128;SDS011;10722;51.910;8.352;2023-10-08T07:10:05;14.23;;;2.30;;
21128;SDS011;10722;51.910;8.352;2023-10-08T07:12:51;16.45;;;2.25;;
21128;SDS011;10722;51.910;8.352;2023-10-08T07:15:36;15.50;;;2.75;;
21128;SDS011;10722;51.910;8.352;2023-10-08T07:18:21;11.70;;;2.40;;
21128;SDS011;10722;51.910;8.352;2023-10-08T07:21:07;16.25;;;2.55;;
21128;SDS011;10722;51.910;8.352;2023-10-08T07:23:52;16.38;;;2.72;;
21128;SDS011;10722;51.910;8.352;2023-10-08T07:26:37;14.18;;;2.60;;
21128;SDS011;10722;51.910;8.352;2023-10-08T07:29:22;13.40;;;2.40;;
21128;SDS011;10722;51.910;8.352;2023-10-08T07:32:07;15.32;;;2.92;;
21128;SDS011;10722;51.910;8.352;2023-10-08T07:34:52;15.05;;;2.92;;
21128;SDS011;10722;51.910;8.352;2023-10-08T07:37:38;16.00;;;3.88;;
21128;SDS011;10722;51.910;8.352;2023-10-08T07:40:23;15.80;;;2.85;;
21128;SDS011;10722;51.910;8.352;2023-10-08T07:43:08;13.32;;;2.80;;
21128;SDS011;10722;51.910;8.352;2023-10-08T07:45:53;16.25;;;3.28;;
21128;SDS011;10722;51.910;8.352;2023-10-08T07:48:39;17.27;;;4.88;;
21128;SDS011;10722;51.910;8.352;2023-10-08T07:51:24;18.05;;;4.20;;
21128;SDS011;10722;51.910;8.352;2023-10-08T07:54:09;19.80;;;4.00;;
21128;SDS011;10722;51.910;8.352;2023-10-08T07:56:55;20.42;;;4.85;;
21128;SDS011;10722;51.910;8.352;2023-10-08T07:59:41;17.42;;;3.78;;
21128;SDS011;10722;51.910;8.352;2023-10-08T08:02:27;17.42;;;3.80;;
21128;SDS011;10722;51.910;8.352;2023-10-08T08:05:12;16.55;;;3.75;;
21128;SDS011;10722;51.910;8.352;2023-10-08T08:07:58;16.27;;;3.90;;
21128;SDS011;10722;51.910;8.352;2023-10-08T08:10:44;20.25;;;4.10;;
21128;SDS011;10722;51.910;8.352;2023-10-08T08:13:29;19.80;;;4.00;;
21128;SDS011;10722;51.910;8.352;2023-10-08T08:16:14;16.30;;;4.20;;
21128;SDS011;10722;51.910;8.352;2023-10-08T08:19:00;16.23;;;4.25;;
21128;SDS011;10722;51.910;8.352;2023-10-08T08:21:45;18.77;;;4.00;;
21128;SDS011;10722;51.910;8.352;2023-10-08T08:24:30;18.42;;;3.75;;
21128;SDS011;10722;51.910;8.352;2023-10-08T08:27:15;19.48;;;3.60;;
21128;SDS011;10722;51.910;8.352;2023-10-08T08:30:00;19.23;;;3.60;;
21128;SDS011;10722;51.910;8.352;2023-10-08T08:32:46;11.40;;;3.30;;
21128;SDS011;10722;51.910;8.352;2023-10-08T08:35:35;15.82;;;3.15;;
21128;SDS011;10722;51.910;8.352;2023-10-08T08:38:20;16.58;;;3.17;;
21128;SDS011;10722;51.910;8.352;2023-10-08T08:41:05;14.82;;;2.92;;
21128;SDS011;10722;51.910;8.352;2023-10-08T08:43:52;12.15;;;2.80;;
21128;SDS011;10722;51.910;8.352;2023-10-08T08:46:38;12.40;;;2.33;;
21128;SDS011;10722;51.910;8.352;2023-10-08T08:49:23;16.17;;;2.72;;
21128;SDS011;10722;51.910;8.352;2023-10-08T08:52:10;17.40;;;2.50;;
21128;SDS011;10722;51.910;8.352;2023-10-08T08:54:55;13.70;;;2.50;;
21128;SDS011;10722;51.910;8.352;2023-10-08T08:57:44;15.50;;;2.60;;
21128;SDS011;10722;51.910;8.352;2023-10-08T09:00:31;18.60;;;3.00;;
21128;SDS011;10722;51.910;8.352;2023-10-08T09:03:17;16.90;;;3.20;;
21128;SDS011;10722;51.910;8.352;2023-10-08T09:06:02;15.82;;;2.30;;
21128;SDS011;10722;51.910;8.352;2023-10-08T09:08:48;12.50;;;2.83;;
21128;SDS011;10722;51.910;8.352;2023-10-08T09:11:32;13.45;;;2.40;;
21128;SDS011;10722;51.910;8.352;2023-10-08T09:14:21;15.27;;;2.55;;
21128;SDS011;10722;51.910;8.352;2023-10-08T09:17:07;14.00;;;2.83;;
21128;SDS011;10722;51.910;8.352;2023-10-08T09:19:52;10.25;;;2.05;;
21128;SDS011;10722;51.910;8.352;2023-10-08T09:22:37;12.15;;;2.20;;
21128;SDS011;10722;51.910;8.352;2023-10-08T09:25:23;13.13;;;2.70;;
21128;SDS011;10722;51.910;8.352;2023-10-08T09:28:09;11.43;;;2.10;;
21128;SDS011;10722;51.910;8.352;2023-10-08T09:30:54;7.93;;;2.30;;
21128;SDS011;10722;51.910;8.352;2023-10-08T09:33:40;10.60;;;1.85;;
21128;SDS011;10722;51.910;8.352;2023-10-08T09:36:25;12.68;;;2.53;;
21128;SDS011;10722;51.910;8.352;2023-10-08T09:39:10;14.18;;;1.98;;
21128;SDS011;10722;51.910;8.352;2023-10-08T09:41:57;13.32;;;2.60;;
21128;SDS011;10722;51.910;8.352;2023-10-08T09:44:42;11.10;;;2.00;;
21128;SDS011;10722;51.910;8.352;2023-10-08T09:47:27;16.27;;;2.15;;
21128;SDS011;10722;51.910;8.352;2023-10-08T09:50:16;10.60;;;2.20;;
21128;SDS011;10722;51.910;8.352;2023-10-08T09:53:13;11.02;;;2.00;;
21128;SDS011;10722;51.910;8.352;2023-10-08T09:55:58;11.02;;;2.08;;
21128;SDS011;10722;51.910;8.352;2023-10-08T09:58:46;13.55;;;2.03;;
21128;SDS011;10722;51.910;8.352;2023-10-08T10:01:32;9.75;;;1.98;;
21128;SDS011;10722;51.910;8.352;2023-10-08T10:04:25;8.68;;;2.00;;
21128;SDS011;10722;51.910;8.352;2023-10-08T10:07:11;8.90;;;1.88;;
21128;SDS011;10722;51.910;8.352;2023-10-08T10:09:58;14.45;;;2.40;;
21128;SDS011;10722;51.910;8.352;2023-10-08T10:12:44;9.90;;;1.95;;
21128;SDS011;10722;51.910;8.352;2023-10-08T10:15:29;7.80;;;1.90;;
21128;SDS011;10722;51.910;8.352;2023-10-08T10:23:56;12.45;;;2.20;;
21128;SDS011;10722;51.910;8.352;2023-10-08T10:26:42;16.33;;;2.47;;
21128;SDS011;10722;51.910;8.352;2023-10-08T10:29:27;10.40;;;2.28;;
21128;SDS011;10722;51.910;8.352;2023-10-08T10:32:12;9.98;;;2.30;;
21128;SDS011;10722;51.910;8.352;2023-10-08T10:34:58;10.30;;;2.28;;
21128;SDS011;10722;51.910;8.352;2023-10-08T10:37:43;16.20;;;2.40;;
21128;SDS011;10722;51.910;8.352;2023-10-08T10:40:27;13.82;;;2.35;;
21128;SDS011;10722;51.910;8.352;2023-10-08T10:43:12;13.30;;;2.25;;
21128;SDS011;10722;51.910;8.352;2023-10-08T10:46:01;12.93;;;2.13;;
21128;SDS011;10722;51.910;8.352;2023-10-08T10:48:46;12.10;;;2.42;;
21128;SDS011;10722;51.910;8.352;2023-10-08T10:51:32;10.70;;;2.42;;
21128;SDS011;10722;51.910;8.352;2023-10-08T10:54:18;13.02;;;2.50;;
21128;SDS011;10722;51.910;8.352;2023-10-08T10:57:05;10.85;;;2.33;;
21128;SDS011;10722;51.910;8.352;2023-10-08T10:59:51;10.15;;;2.42;;
21128;SDS011;10722;51.910;8.352;2023-10-08T11:02:36;10.45;;;2.38;;
21128;SDS011;10722;51.910;8.352;2023-10-08T11:05:22;11.95;;;2.40;;
21128;SDS011;10722;51.910;8.352;2023-10-08T11:08:08;10.45;;;2.38;;
21128;SDS011;10722;51.910;8.352;2023-10-08T11:10:54;12.90;;;2.40;;
21128;SDS011;10722;51.910;8.352;2023-10-08T11:13:39;10.30;;;2.13;;
21128;SDS011;10722;51.910;8.352;2023-10-08T11:16:24;11.52;;;2.10;;
21128;SDS011;10722;51.910;8.352;2023-10-08T11:19:10;7.35;;;1.83;;
21128;SDS011;10722;51.910;8.352;2023-10-08T11:21:55;13.68;;;2.40;;
21128;SDS011;10722;51.910;8.352;2023-10-08T11:24:40;11.48;;;2.20;;
21128;SDS011;10722;51.910;8.352;2023-10-08T11:27:26;8.73;;;1.98;;
21128;SDS011;10722;51.910;8.352;2023-10-08T11:30:12;11.00;;;2.22;;
21128;SDS011;10722;51.910;8.352;2023-10-08T11:32:59;11.23;;;2.22;;
21128;SDS011;10722;51.910;8.352;2023-10-08T11:35:58;10.02;;;2.45;;
21128;SDS011;10722;51.910;8.352;2023-10-08T11:38:45;9.60;;;2.30;;
21128;SDS011;10722;51.910;8.352;2023-10-08T11:41:31;10.13;;;2.20;;
21128;SDS011;10722;51.910;8.352;2023-10-08T11:44:16;9.40;;;2.25;;
21128;SDS011;10722;51.910;8.352;2023-10-08T11:47:02;14.40;;;2.35;;
21128;SDS011;10722;51.910;8.352;2023-10-08T11:49:47;13.18;;;2.03;;
21128;SDS011;10722;51.910;8.352;2023-10-08T11:52:33;10.07;;;2.05;;
21128;SDS011;10722;51.910;8.352;2023-10-08T11:55:18;9.43;;;2.10;;
21128;SDS011;10722;51.910;8.352;2023-10-08T11:58:06;13.23;;;2.05;;
21128;SDS011;10722;51.910;8.352;2023-10-08T12:00:51;13.98;;;2.60;;
21128;SDS011;10722;51.910;8.352;2023-10-08T12:03:36;10.65;;;2.22;;
21128;SDS011;10722;51.910;8.352;2023-10-08T12:06:22;10.88;;;2.10;;
21128;SDS011;10722;51.910;8.352;2023-10-08T12:09:07;7.95;;;2.10;;
21128;SDS011;10722;51.910;8.352;2023-10-08T12:11:52;10.20;;;2.10;;
21128;SDS011;10722;51.910;8.352;2023-10-08T12:14:37;12.40;;;2.20;;
21128;SDS011;10722;51.910;8.352;2023-10-08T12:17:22;10.23;;;1.90;;
21128;SDS011;10722;51.910;8.352;2023-10-08T12:20:07;7.07;;;1.90;;
21128;SDS011;10722;51.910;8.352;2023-10-08T12:22:52;10.90;;;2.30;;
21128;SDS011;10722;51.910;8.352;2023-10-08T12:25:37;10.02;;;2.10;;
21128;SDS011;10722;51.910;8.352;2023-10-08T12:28:23;9.65;;;2.40;;
21128;SDS011;10722;51.910;8.352;2023-10-08T12:31:09;14.27;;;2.50;;
21128;SDS011;10722;51.910;8.352;2023-10-08T12:33:54;9.68;;;2.08;;
21128;SDS011;10722;51.910;8.352;2023-10-08T12:36:39;9.73;;;2.33;;
21128;SDS011;10722;51.910;8.352;2023-10-08T12:39:24;11.02;;;1.85;;
21128;SDS011;10722;51.910;8.352;2023-10-08T12:42:09;10.13;;;2.20;;
21128;SDS011;10722;51.910;8.352;2023-10-08T12:44:54;9.98;;;2.10;;
21128;SDS011;10722;51.910;8.352;2023-10-08T12:47:39;8.13;;;1.70;;
21128;SDS011;10722;51.910;8.352;2023-10-08T12:50:25;10.55;;;2.33;;
21128;SDS011;10722;51.910;8.352;2023-10-08T12:53:10;11.10;;;2.10;;
21128;SDS011;10722;51.910;8.352;2023-10-08T12:55:55;10.27;;;2.05;;
21128;SDS011;10722;51.910;8.352;2023-10-08T12:58:41;10.48;;;1.85;;
21128;SDS011;10722;51.910;8.352;2023-10-08T13:01:27;9.73;;;1.98;;
21128;SDS011;10722;51.910;8.352;2023-10-08T13:04:12;12.40;;;2.20;;
21128;SDS011;10722;51.910;8.352;2023-10-08T13:06:58;10.88;;;1.92;;
21128;SDS011;10722;51.910;8.352;2023-10-08T13:09:43;7.28;;;1.60;;
21128;SDS011;10722;51.910;8.352;2023-10-08T13:12:29;11.68;;;2.38;;
21128;SDS011;10722;51.910;8.352;2023-10-08T13:15:14;14.35;;;1.70;;
21128;SDS011;10722;51.910;8.352;2023-10-08T13:17:59;10.70;;;1.75;;
21128;SDS011;10722;51.910;8.352;2023-10-08T13:20:44;11.60;;;1.70;;
21128;SDS011;10722;51.910;8.352;2023-10-08T13:23:30;8.45;;;1.58;;
21128;SDS011;10722;51.910;8.352;2023-10-08T13:26:15;6.88;;;1.60;;
21128;SDS011;10722;51.910;8.352;2023-10-08T13:29:01;12.50;;;2.10;;
21128;SDS011;10722;51.910;8.352;2023-10-08T13:31:46;13.13;;;2.38;;
21128;SDS011;10722;51.910;8.352;2023-10-08T13:34:31;8.68;;;1.90;;
21128;SDS011;10722;51.910;8.352;2023-10-08T13:37:16;9.25;;;1.90;;
21128;SDS011;10722;51.910;8.352;2023-10-08T13:40:01;7.60;;;1.60;;
21128;SDS011;10722;51.910;8.352;2023-10-08T13:42:47;11.48;;;1.90;;
21128;SDS011;10722;51.910;8.352;2023-10-08T13:45:32;9.27;;;1.80;;
21128;SDS011;10722;51.910;8.352;2023-10-08T13:48:17;12.10;;;1.90;;
21128;SDS011;10722;51.910;8.352;2023-10-08T13:51:02;10.27;;;2.03;;
21128;SDS011;10722;51.910;8.352;2023-10-08T13:53:49;14.05;;;3.35;;
21128;SDS011;10722;51.910;8.352;2023-10-08T13:56:35;8.95;;;1.75;;
21128;SDS011;10722;51.910;8.352;2023-10-08T13:59:19;10.27;;;2.17;;
21128;SDS011;10722;51.910;8.352;2023-10-08T14:02:05;11.38;;;2.00;;
21128;SDS011;10722;51.910;8.352;2023-10-08T14:04:51;9.65;;;1.73;;
21128;SDS011;10722;51.910;8.352;2023-10-08T14:07:35;7.32;;;1.55;;
21128;SDS011;10722;51.910;8.352;2023-10-08T14:10:20;7.70;;;1.52;;
21128;SDS011;10722;51.910;8.352;2023-10-08T14:13:05;9.27;;;1.60;;
21128;SDS011;10722;51.910;8.352;2023-10-08T14:15:50;8.35;;;1.73;;
21128;SDS011;10722;51.910;8.352;2023-10-08T14:18:35;9.18;;;2.00;;
21128;SDS011;10722;51.910;8.352;2023-10-08T14:21:21;6.75;;;1.70;;
21128;SDS011;10722;51.910;8.352;2023-10-08T14:24:07;8.10;;;1.65;;
21128;SDS011;10722;51.910;8.352;2023-10-08T14:26:52;7.97;;;1.67;;
21128;SDS011;10722;51.910;8.352;2023-10-08T14:29:38;11.30;;;2.08;;
21128;SDS011;10722;51.910;8.352;2023-10-08T14:32:24;9.93;;;1.80;;
21128;SDS011;10722;51.910;8.352;2023-10-08T14:35:09;9.38;;;2.10;;
21128;SDS011;10722;51.910;8.352;2023-10-08T14:37:54;10.75;;;1.80;;
21128;SDS011;10722;51.910;8.352;2023-10-08T14:40:39;9.23;;;1.63;;
21128;SDS011;10722;51.910;8.352;2023-10-08T14:43:24;10.30;;;1.88;;
21128;SDS011;10722;51.910;8.352;2023-10-08T14:46:09;10.07;;;1.80;;
21128;SDS011;10722;51.910;8.352;2023-10-08T14:48:55;10.82;;;1.90;;
21128;SDS011;10722;51.910;8.352;2023-10-08T14:51:40;11.52;;;2.55;;
21128;SDS011;10722;51.910;8.352;2023-10-08T14:54:25;9.07;;;2.35;;
21128;SDS011;10722;51.910;8.352;2023-10-08T14:57:11;10.30;;;2.35;;
21128;SDS011;10722;51.910;8.352;2023-10-08T14:59:59;8.20;;;1.90;;
21128;SDS011;10722;51.910;8.352;2023-10-08T15:02:44;8.18;;;1.88;;
21128;SDS011;10722;51.910;8.352;2023-10-08T15:05:29;10.95;;;1.85;;
21128;SDS011;10722;51.910;8.352;2023-10-08T15:08:15;9.20;;;1.60;;
21128;SDS011;10722;51.910;8.352;2023-10-08T15:11:00;7.65;;;1.90;;
21128;SDS011;10722;51.910;8.352;2023-10-08T15:13:45;11.20;;;2.40;;
21128;SDS011;10722;51.910;8.352;2023-10-08T15:16:30;9.50;;;2.33;;
21128;SDS011;10722;51.910;8.352;2023-10-08T15:19:14;10.93;;;2.25;;
21128;SDS011;10722;51.910;8.352;2023-10-08T15:21:59;10.68;;;2.30;;
21128;SDS011;10722;51.910;8.352;2023-10-08T15:24:44;10.35;;;2.35;;
21128;SDS011;10722;51.910;8.352;2023-10-08T15:27:29;6.95;;;1.80;;
21128;SDS011;10722;51.910;8.352;2023-10-08T15:30:15;7.35;;;1.70;;
21128;SDS011;10722;51.910;8.352;2023-10-08T15:33:02;9.02;;;1.80;;
21128;SDS011;10722;51.910;8.352;2023-10-08T15:35:47;11.93;;;3.22;;
21128;SDS011;10722;51.910;8.352;2023-10-08T15:38:32;12.55;;;2.92;;
21128;SDS011;10722;51.910;8.352;2023-10-08T15:41:18;10.57;;;2.50;;
21128;SDS011;10722;51.910;8.352;2023-10-08T15:44:03;9.82;;;2.22;;
21128;SDS011;10722;51.910;8.352;2023-10-08T15:46:49;13.93;;;2.10;;
21128;SDS011;10722;51.910;8.352;2023-10-08T15:49:34;10.10;;;2.20;;
21128;SDS011;10722;51.910;8.352;2023-10-08T15:52:19;10.77;;;2.22;;
21128;SDS011;10722;51.910;8.352;2023-10-08T15:55:04;8.63;;;1.90;;
21128;SDS011;10722;51.910;8.352;2023-10-08T15:57:53;9.85;;;2.20;;
21128;SDS011;10722;51.910;8.352;2023-10-08T16:00:39;10.07;;;2.00;;
21128;SDS011;10722;51.910;8.352;2023-10-08T16:03:24;12.10;;;2.50;;
21128;SDS011;10722;51.910;8.352;2023-10-08T16:06:09;8.02;;;1.77;;
21128;SDS011;10722;51.910;8.352;2023-10-08T16:08:54;12.65;;;1.73;;
21128;SDS011;10722;51.910;8.352;2023-10-08T16:11:39;9.57;;;2.00;;
21128;SDS011;10722;51.910;8.352;2023-10-08T16:14:24;8.32;;;1.75;;
21128;SDS011;10722;51.910;8.352;2023-10-08T16:17:12;13.65;;;2.90;;
21128;SDS011;10722;51.910;8.352;2023-10-08T16:19:57;10.82;;;2.03;;
21128;SDS011;10722;51.910;8.352;2023-10-08T16:22:42;8.90;;;1.88;;
21128;SDS011;10722;51.910;8.352;2023-10-08T16:25:29;11.18;;;2.38;;
21128;SDS011;10722;51.910;8.352;2023-10-08T16:28:14;8.10;;;1.90;;
21128;SDS011;10722;51.910;8.352;2023-10-08T16:30:59;13.93;;;2.53;;
21128;SDS011;10722;51.910;8.352;2023-10-08T16:33:45;10.75;;;2.30;;